Tropical Cyclones
[Index]
Main Index Home Page Stock Weather Photos Extreme Storms Discussion Storm News and Storm Chasing Reports Tropical Cyclones / Hurricanes / Typhoons Weather Data and Links Wild Fires / Bushfires Weather Observation Techniques Weather Picture Catalogue Tornado Pictures and Reports Stock Video Footage and DVDs for sale
Season 2006-2007 Tropical Cyclone BECKY Track Map
Season 2006-2007 Summaries (Operational Data): [AU] [SIO] [SPAC] [SH]
<<- Previous TC | 2006-2007 Season | Next TC ->>

click for intensity scale information  Lat/long Grid: Show Hide

 Date Labels: Show Hide

Operational Tropical Cyclone Data : JTWC Advisories | BoM Warnings

Name: BECKY
Number: 0721

25 Mar 2007 00:00 UTC to 31 Mar 2007 18:00 UTC

    date/time    lat    long     hPa   cat  kts
2007-03-25 00   12.0   157.5    1001         30          
2007-03-25 06   12.3   158.5    1001         30          
2007-03-25 12   12.4   159.3    1000         30          
2007-03-25 18   12.0   160.2     997         30          
2007-03-26 00   12.7   161.2     997         30          
2007-03-26 06   12.8   162.8     997         30          
2007-03-26 12   13.1   162.6     996         30          
2007-03-26 18   13.4   163.3     990    1    40          
2007-03-27 00   14.1   164.9     985    2    50          
2007-03-27 06   14.7   165.6     980    2    55          
2007-03-27 12   15.9   166.3     975    2    60          
2007-03-27 18   17.1   166.8     975    2    60          
2007-03-28 00   18.3   167.5     975    2    60          
2007-03-28 06   19.3   167.7     975    2    60          
2007-03-28 12   19.9   167.9     975    2    60          
2007-03-28 18   20.5   168.0     980    2    55          
2007-03-29 00   20.8   168.3     995    1    35          
2007-03-29 06   20.9   167.3     995         30          
2007-03-29 12   21.5   168.1                             
2007-03-29 18   22.0   167.0    1000         25          
2007-03-30 06   22.0   167.0    1000         25          
2007-03-30 18   22.0   166.0    1003         20          
2007-03-31 06   22.0   166.0    1003         20          
2007-03-31 18   22.0   163.0    1003         20          
Winds are 10-min average.

Tropical cyclone tracks developed by Michael Bath using operational warnings and advisories and Google Maps.


[Australian Severe Weather index] [Copyright Notice] [Email Contacts] [Search This Site] [Privacy Policy]
Document: tropical_cyclone_becky.htm Updated: 28 May 2013